sensor_id;sensor_type;location;lat;lon;timestamp;P1;durP1;ratioP1;P2;durP2;ratioP2
14241;SDS011;7205;50.864;12.766;2023-03-01T00:00:16;25.90;;;17.63;;
14241;SDS011;7205;50.864;12.766;2023-03-01T00:02:43;27.47;;;17.80;;
14241;SDS011;7205;50.864;12.766;2023-03-01T00:05:10;25.27;;;16.40;;
14241;SDS011;7205;50.864;12.766;2023-03-01T00:07:37;27.77;;;17.13;;
14241;SDS011;7205;50.864;12.766;2023-03-01T00:10:04;24.23;;;16.83;;
14241;SDS011;7205;50.864;12.766;2023-03-01T00:12:33;24.87;;;16.60;;
14241;SDS011;7205;50.864;12.766;2023-03-01T00:15:01;26.30;;;17.30;;
14241;SDS011;7205;50.864;12.766;2023-03-01T00:17:30;26.93;;;16.90;;
14241;SDS011;7205;50.864;12.766;2023-03-01T00:19:56;25.43;;;17.00;;
14241;SDS011;7205;50.864;12.766;2023-03-01T00:22:23;26.50;;;16.77;;
14241;SDS011;7205;50.864;12.766;2023-03-01T00:24:50;22.50;;;16.43;;
14241;SDS011;7205;50.864;12.766;2023-03-01T00:27:17;25.73;;;16.87;;
14241;SDS011;7205;50.864;12.766;2023-03-01T00:29:45;21.87;;;15.17;;
14241;SDS011;7205;50.864;12.766;2023-03-01T00:32:12;21.20;;;15.17;;
14241;SDS011;7205;50.864;12.766;2023-03-01T00:34:39;23.80;;;15.67;;
14241;SDS011;7205;50.864;12.766;2023-03-01T00:37:06;23.83;;;16.67;;
14241;SDS011;7205;50.864;12.766;2023-03-01T00:39:33;26.50;;;17.20;;
14241;SDS011;7205;50.864;12.766;2023-03-01T00:41:59;27.40;;;17.43;;
14241;SDS011;7205;50.864;12.766;2023-03-01T00:44:27;24.60;;;16.90;;
14241;SDS011;7205;50.864;12.766;2023-03-01T00:46:55;24.33;;;16.37;;
14241;SDS011;7205;50.864;12.766;2023-03-01T00:49:22;24.60;;;17.23;;
14241;SDS011;7205;50.864;12.766;2023-03-01T00:51:53;24.40;;;16.93;;
14241;SDS011;7205;50.864;12.766;2023-03-01T00:54:22;23.57;;;15.87;;
14241;SDS011;7205;50.864;12.766;2023-03-01T00:56:49;23.97;;;16.77;;
14241;SDS011;7205;50.864;12.766;2023-03-01T00:59:16;25.37;;;17.00;;
14241;SDS011;7205;50.864;12.766;2023-03-01T01:01:43;26.13;;;16.83;;
14241;SDS011;7205;50.864;12.766;2023-03-01T01:04:12;25.20;;;17.23;;
14241;SDS011;7205;50.864;12.766;2023-03-01T01:06:40;23.83;;;16.50;;
14241;SDS011;7205;50.864;12.766;2023-03-01T01:09:09;27.27;;;17.43;;
14241;SDS011;7205;50.864;12.766;2023-03-01T01:11:42;28.23;;;17.00;;
14241;SDS011;7205;50.864;12.766;2023-03-01T01:14:09;25.30;;;16.80;;
14241;SDS011;7205;50.864;12.766;2023-03-01T01:16:36;24.80;;;16.70;;
14241;SDS011;7205;50.864;12.766;2023-03-01T01:19:03;30.50;;;17.37;;
14241;SDS011;7205;50.864;12.766;2023-03-01T01:21:31;23.40;;;16.97;;
14241;SDS011;7205;50.864;12.766;2023-03-01T01:24:02;26.67;;;16.90;;
14241;SDS011;7205;50.864;12.766;2023-03-01T01:26:31;28.03;;;16.93;;
14241;SDS011;7205;50.864;12.766;2023-03-01T01:29:01;27.10;;;17.50;;
14241;SDS011;7205;50.864;12.766;2023-03-01T01:31:35;24.40;;;16.43;;
14241;SDS011;7205;50.864;12.766;2023-03-01T01:34:05;23.57;;;16.50;;
14241;SDS011;7205;50.864;12.766;2023-03-01T01:36:38;24.50;;;16.90;;
14241;SDS011;7205;50.864;12.766;2023-03-01T01:39:08;26.17;;;17.63;;
14241;SDS011;7205;50.864;12.766;2023-03-01T01:41:38;25.77;;;17.17;;
14241;SDS011;7205;50.864;12.766;2023-03-01T01:44:11;24.93;;;17.10;;
14241;SDS011;7205;50.864;12.766;2023-03-01T01:46:41;25.23;;;17.23;;
14241;SDS011;7205;50.864;12.766;2023-03-01T01:49:12;26.47;;;17.33;;
14241;SDS011;7205;50.864;12.766;2023-03-01T01:51:55;25.53;;;17.33;;
14241;SDS011;7205;50.864;12.766;2023-03-01T01:54:27;27.83;;;17.73;;
14241;SDS011;7205;50.864;12.766;2023-03-01T01:57:07;28.67;;;17.77;;
14241;SDS011;7205;50.864;12.766;2023-03-01T01:59:48;28.53;;;17.80;;
14241;SDS011;7205;50.864;12.766;2023-03-01T02:02:18;26.03;;;17.60;;
14241;SDS011;7205;50.864;12.766;2023-03-01T02:04:45;28.10;;;17.60;;
14241;SDS011;7205;50.864;12.766;2023-03-01T02:07:17;24.60;;;16.47;;
14241;SDS011;7205;50.864;12.766;2023-03-01T02:09:46;25.07;;;17.10;;
14241;SDS011;7205;50.864;12.766;2023-03-01T02:12:17;25.03;;;15.83;;
14241;SDS011;7205;50.864;12.766;2023-03-01T02:14:46;27.93;;;17.43;;
14241;SDS011;7205;50.864;12.766;2023-03-01T02:17:14;25.97;;;16.60;;
14241;SDS011;7205;50.864;12.766;2023-03-01T02:19:47;23.93;;;15.57;;
14241;SDS011;7205;50.864;12.766;2023-03-01T02:22:37;22.87;;;16.13;;
14241;SDS011;7205;50.864;12.766;2023-03-01T02:25:12;26.30;;;15.67;;
14241;SDS011;7205;50.864;12.766;2023-03-01T02:27:58;24.17;;;16.33;;
14241;SDS011;7205;50.864;12.766;2023-03-01T02:30:33;23.70;;;16.37;;
14241;SDS011;7205;50.864;12.766;2023-03-01T02:33:00;24.23;;;16.47;;
14241;SDS011;7205;50.864;12.766;2023-03-01T02:35:30;22.87;;;16.47;;
14241;SDS011;7205;50.864;12.766;2023-03-01T02:38:01;23.33;;;15.23;;
14241;SDS011;7205;50.864;12.766;2023-03-01T02:40:29;24.27;;;16.03;;
14241;SDS011;7205;50.864;12.766;2023-03-01T02:42:59;23.73;;;16.60;;
14241;SDS011;7205;50.864;12.766;2023-03-01T02:45:26;25.17;;;16.50;;
14241;SDS011;7205;50.864;12.766;2023-03-01T02:47:55;27.27;;;16.63;;
14241;SDS011;7205;50.864;12.766;2023-03-01T02:50:25;22.97;;;16.10;;
14241;SDS011;7205;50.864;12.766;2023-03-01T02:53:12;26.70;;;17.03;;
14241;SDS011;7205;50.864;12.766;2023-03-01T02:55:43;22.97;;;15.30;;
14241;SDS011;7205;50.864;12.766;2023-03-01T02:58:10;24.27;;;16.37;;
14241;SDS011;7205;50.864;12.766;2023-03-01T03:00:38;24.70;;;16.13;;
14241;SDS011;7205;50.864;12.766;2023-03-01T03:03:13;22.47;;;15.87;;
14241;SDS011;7205;50.864;12.766;2023-03-01T03:05:41;27.70;;;16.00;;
14241;SDS011;7205;50.864;12.766;2023-03-01T03:08:08;21.30;;;15.57;;
14241;SDS011;7205;50.864;12.766;2023-03-01T03:10:37;26.50;;;15.90;;
14241;SDS011;7205;50.864;12.766;2023-03-01T03:13:06;27.87;;;16.37;;
14241;SDS011;7205;50.864;12.766;2023-03-01T03:15:36;23.53;;;14.97;;
14241;SDS011;7205;50.864;12.766;2023-03-01T03:18:05;29.03;;;16.80;;
14241;SDS011;7205;50.864;12.766;2023-03-01T03:20:36;26.93;;;16.57;;
14241;SDS011;7205;50.864;12.766;2023-03-01T03:23:03;23.70;;;15.97;;
14241;SDS011;7205;50.864;12.766;2023-03-01T03:25:30;26.13;;;16.33;;
14241;SDS011;7205;50.864;12.766;2023-03-01T03:27:57;24.93;;;16.47;;
14241;SDS011;7205;50.864;12.766;2023-03-01T03:30:25;24.00;;;16.83;;
14241;SDS011;7205;50.864;12.766;2023-03-01T03:32:53;27.23;;;17.33;;
14241;SDS011;7205;50.864;12.766;2023-03-01T03:35:22;27.50;;;17.47;;
14241;SDS011;7205;50.864;12.766;2023-03-01T03:37:52;24.33;;;16.37;;
14241;SDS011;7205;50.864;12.766;2023-03-01T03:40:29;24.40;;;16.50;;
14241;SDS011;7205;50.864;12.766;2023-03-01T03:42:57;26.70;;;18.50;;
14241;SDS011;7205;50.864;12.766;2023-03-01T03:45:24;25.63;;;17.17;;
14241;SDS011;7205;50.864;12.766;2023-03-01T03:47:51;27.57;;;17.97;;
14241;SDS011;7205;50.864;12.766;2023-03-01T03:50:18;28.57;;;17.47;;
14241;SDS011;7205;50.864;12.766;2023-03-01T03:52:45;25.97;;;17.47;;
14241;SDS011;7205;50.864;12.766;2023-03-01T03:55:13;27.33;;;17.70;;
14241;SDS011;7205;50.864;12.766;2023-03-01T03:57:45;24.73;;;16.40;;
14241;SDS011;7205;50.864;12.766;2023-03-01T04:00:17;22.67;;;16.17;;
14241;SDS011;7205;50.864;12.766;2023-03-01T04:02:46;30.03;;;17.57;;
14241;SDS011;7205;50.864;12.766;2023-03-01T04:05:14;28.07;;;17.37;;
14241;SDS011;7205;50.864;12.766;2023-03-01T04:07:42;27.40;;;18.00;;
14241;SDS011;7205;50.864;12.766;2023-03-01T04:10:10;27.03;;;16.93;;
14241;SDS011;7205;50.864;12.766;2023-03-01T04:12:40;26.63;;;17.40;;
14241;SDS011;7205;50.864;12.766;2023-03-01T04:15:08;28.50;;;18.70;;
14241;SDS011;7205;50.864;12.766;2023-03-01T04:17:39;26.60;;;16.87;;
14241;SDS011;7205;50.864;12.766;2023-03-01T04:20:07;28.00;;;17.63;;
14241;SDS011;7205;50.864;12.766;2023-03-01T04:22:36;28.87;;;17.77;;
14241;SDS011;7205;50.864;12.766;2023-03-01T04:25:03;27.37;;;17.07;;
14241;SDS011;7205;50.864;12.766;2023-03-01T04:27:31;25.63;;;16.60;;
14241;SDS011;7205;50.864;12.766;2023-03-01T04:30:01;26.30;;;16.87;;
14241;SDS011;7205;50.864;12.766;2023-03-01T04:32:28;27.90;;;17.80;;
14241;SDS011;7205;50.864;12.766;2023-03-01T04:34:56;25.53;;;17.03;;
14241;SDS011;7205;50.864;12.766;2023-03-01T04:37:25;24.57;;;17.20;;
14241;SDS011;7205;50.864;12.766;2023-03-01T04:39:52;27.57;;;17.33;;
14241;SDS011;7205;50.864;12.766;2023-03-01T04:42:19;28.57;;;17.57;;
14241;SDS011;7205;50.864;12.766;2023-03-01T04:44:46;24.27;;;16.87;;
14241;SDS011;7205;50.864;12.766;2023-03-01T04:47:17;23.00;;;16.37;;
14241;SDS011;7205;50.864;12.766;2023-03-01T04:49:45;26.17;;;17.20;;
14241;SDS011;7205;50.864;12.766;2023-03-01T04:52:11;26.33;;;17.67;;
14241;SDS011;7205;50.864;12.766;2023-03-01T04:54:38;27.93;;;17.30;;
14241;SDS011;7205;50.864;12.766;2023-03-01T04:57:06;27.23;;;17.60;;
14241;SDS011;7205;50.864;12.766;2023-03-01T04:59:33;24.27;;;16.80;;
14241;SDS011;7205;50.864;12.766;2023-03-01T05:02:01;28.97;;;17.37;;
14241;SDS011;7205;50.864;12.766;2023-03-01T05:04:30;28.90;;;18.00;;
14241;SDS011;7205;50.864;12.766;2023-03-01T05:06:57;25.60;;;17.77;;
14241;SDS011;7205;50.864;12.766;2023-03-01T05:09:23;26.87;;;18.20;;
14241;SDS011;7205;50.864;12.766;2023-03-01T05:11:50;26.60;;;17.03;;
14241;SDS011;7205;50.864;12.766;2023-03-01T05:14:17;26.23;;;16.97;;
14241;SDS011;7205;50.864;12.766;2023-03-01T05:16:44;26.97;;;17.00;;
14241;SDS011;7205;50.864;12.766;2023-03-01T05:19:11;28.10;;;17.67;;
14241;SDS011;7205;50.864;12.766;2023-03-01T05:21:42;26.90;;;17.73;;
14241;SDS011;7205;50.864;12.766;2023-03-01T05:24:22;23.40;;;16.80;;
14241;SDS011;7205;50.864;12.766;2023-03-01T05:26:49;26.80;;;17.03;;
14241;SDS011;7205;50.864;12.766;2023-03-01T05:29:17;25.27;;;17.30;;
14241;SDS011;7205;50.864;12.766;2023-03-01T05:31:50;29.23;;;17.97;;
14241;SDS011;7205;50.864;12.766;2023-03-01T05:34:18;29.17;;;18.10;;
14241;SDS011;7205;50.864;12.766;2023-03-01T05:36:49;29.20;;;17.53;;
14241;SDS011;7205;50.864;12.766;2023-03-01T05:39:18;24.93;;;16.57;;
14241;SDS011;7205;50.864;12.766;2023-03-01T05:41:46;26.67;;;17.67;;
14241;SDS011;7205;50.864;12.766;2023-03-01T05:44:13;28.27;;;17.73;;
14241;SDS011;7205;50.864;12.766;2023-03-01T05:46:41;28.20;;;17.80;;
14241;SDS011;7205;50.864;12.766;2023-03-01T05:49:07;26.73;;;16.53;;
14241;SDS011;7205;50.864;12.766;2023-03-01T05:51:34;28.03;;;17.17;;
14241;SDS011;7205;50.864;12.766;2023-03-01T05:54:02;28.90;;;17.27;;
14241;SDS011;7205;50.864;12.766;2023-03-01T05:56:32;27.30;;;17.93;;
14241;SDS011;7205;50.864;12.766;2023-03-01T05:58:59;31.03;;;19.20;;
14241;SDS011;7205;50.864;12.766;2023-03-01T06:01:26;27.07;;;17.53;;
14241;SDS011;7205;50.864;12.766;2023-03-01T06:03:53;27.53;;;16.43;;
14241;SDS011;7205;50.864;12.766;2023-03-01T06:06:20;27.27;;;17.17;;
14241;SDS011;7205;50.864;12.766;2023-03-01T06:08:47;29.43;;;17.90;;
14241;SDS011;7205;50.864;12.766;2023-03-01T06:11:21;27.47;;;16.47;;
14241;SDS011;7205;50.864;12.766;2023-03-01T06:13:48;27.23;;;17.73;;
14241;SDS011;7205;50.864;12.766;2023-03-01T06:16:15;24.77;;;15.93;;
14241;SDS011;7205;50.864;12.766;2023-03-01T06:18:43;26.73;;;17.50;;
14241;SDS011;7205;50.864;12.766;2023-03-01T06:21:10;32.67;;;17.23;;
14241;SDS011;7205;50.864;12.766;2023-03-01T06:23:36;30.43;;;17.37;;
14241;SDS011;7205;50.864;12.766;2023-03-01T06:26:07;27.30;;;16.27;;
14241;SDS011;7205;50.864;12.766;2023-03-01T06:28:36;23.37;;;15.70;;
14241;SDS011;7205;50.864;12.766;2023-03-01T06:31:03;24.53;;;16.10;;
14241;SDS011;7205;50.864;12.766;2023-03-01T06:33:33;23.47;;;16.10;;
14241;SDS011;7205;50.864;12.766;2023-03-01T06:36:01;26.57;;;16.87;;
14241;SDS011;7205;50.864;12.766;2023-03-01T06:38:27;24.43;;;16.50;;
14241;SDS011;7205;50.864;12.766;2023-03-01T06:40:54;25.03;;;16.30;;
14241;SDS011;7205;50.864;12.766;2023-03-01T06:43:21;24.53;;;16.23;;
14241;SDS011;7205;50.864;12.766;2023-03-01T06:45:50;22.20;;;16.20;;
14241;SDS011;7205;50.864;12.766;2023-03-01T06:48:17;23.77;;;16.47;;
14241;SDS011;7205;50.864;12.766;2023-03-01T06:50:43;24.53;;;15.93;;
14241;SDS011;7205;50.864;12.766;2023-03-01T06:53:10;24.27;;;16.37;;
14241;SDS011;7205;50.864;12.766;2023-03-01T06:55:37;25.40;;;16.57;;
14241;SDS011;7205;50.864;12.766;2023-03-01T06:58:04;25.23;;;17.07;;
14241;SDS011;7205;50.864;12.766;2023-03-01T07:00:31;24.47;;;16.37;;
14241;SDS011;7205;50.864;12.766;2023-03-01T07:03:00;21.93;;;15.93;;
14241;SDS011;7205;50.864;12.766;2023-03-01T07:05:28;20.33;;;15.07;;
14241;SDS011;7205;50.864;12.766;2023-03-01T07:07:55;21.37;;;14.43;;
14241;SDS011;7205;50.864;12.766;2023-03-01T07:10:22;19.40;;;13.80;;
14241;SDS011;7205;50.864;12.766;2023-03-01T07:12:49;19.00;;;13.60;;
14241;SDS011;7205;50.864;12.766;2023-03-01T07:15:16;18.13;;;13.03;;
14241;SDS011;7205;50.864;12.766;2023-03-01T07:17:43;22.23;;;14.33;;
14241;SDS011;7205;50.864;12.766;2023-03-01T07:20:14;22.47;;;14.60;;
14241;SDS011;7205;50.864;12.766;2023-03-01T07:22:41;18.37;;;14.50;;
14241;SDS011;7205;50.864;12.766;2023-03-01T07:25:08;18.07;;;13.77;;
14241;SDS011;7205;50.864;12.766;2023-03-01T07:27:35;18.97;;;13.20;;
14241;SDS011;7205;50.864;12.766;2023-03-01T07:30:03;19.13;;;13.43;;
14241;SDS011;7205;50.864;12.766;2023-03-01T07:32:31;17.67;;;13.17;;
14241;SDS011;7205;50.864;12.766;2023-03-01T07:34:57;17.30;;;12.80;;
14241;SDS011;7205;50.864;12.766;2023-03-01T07:37:25;15.67;;;12.30;;
14241;SDS011;7205;50.864;12.766;2023-03-01T07:39:52;18.73;;;13.10;;
14241;SDS011;7205;50.864;12.766;2023-03-01T07:42:19;16.63;;;12.67;;
14241;SDS011;7205;50.864;12.766;2023-03-01T07:44:46;19.07;;;13.57;;
14241;SDS011;7205;50.864;12.766;2023-03-01T07:47:13;18.43;;;13.67;;
14241;SDS011;7205;50.864;12.766;2023-03-01T07:49:40;17.87;;;13.27;;
14241;SDS011;7205;50.864;12.766;2023-03-01T07:52:06;18.97;;;13.37;;
14241;SDS011;7205;50.864;12.766;2023-03-01T07:54:37;16.37;;;12.83;;
14241;SDS011;7205;50.864;12.766;2023-03-01T07:57:04;15.93;;;12.43;;
14241;SDS011;7205;50.864;12.766;2023-03-01T07:59:31;20.63;;;13.67;;
14241;SDS011;7205;50.864;12.766;2023-03-01T08:01:58;18.53;;;13.10;;
14241;SDS011;7205;50.864;12.766;2023-03-01T08:04:25;17.20;;;12.60;;
14241;SDS011;7205;50.864;12.766;2023-03-01T08:06:52;17.47;;;12.73;;
14241;SDS011;7205;50.864;12.766;2023-03-01T08:09:19;20.17;;;13.47;;
14241;SDS011;7205;50.864;12.766;2023-03-01T08:11:47;17.73;;;13.10;;
14241;SDS011;7205;50.864;12.766;2023-03-01T08:14:14;18.37;;;13.73;;
14241;SDS011;7205;50.864;12.766;2023-03-01T08:16:41;18.83;;;13.63;;
14241;SDS011;7205;50.864;12.766;2023-03-01T08:19:08;17.40;;;13.30;;
14241;SDS011;7205;50.864;12.766;2023-03-01T08:21:37;18.83;;;14.03;;
14241;SDS011;7205;50.864;12.766;2023-03-01T08:24:04;18.40;;;14.13;;
14241;SDS011;7205;50.864;12.766;2023-03-01T08:26:33;19.60;;;14.00;;
14241;SDS011;7205;50.864;12.766;2023-03-01T08:29:04;20.07;;;14.23;;
14241;SDS011;7205;50.864;12.766;2023-03-01T08:31:31;18.67;;;12.83;;
14241;SDS011;7205;50.864;12.766;2023-03-01T08:34:00;19.33;;;13.27;;
14241;SDS011;7205;50.864;12.766;2023-03-01T08:36:29;23.97;;;14.10;;
14241;SDS011;7205;50.864;12.766;2023-03-01T08:38:58;20.10;;;13.63;;
14241;SDS011;7205;50.864;12.766;2023-03-01T08:41:26;17.60;;;13.57;;
14241;SDS011;7205;50.864;12.766;2023-03-01T08:43:53;19.50;;;12.97;;
14241;SDS011;7205;50.864;12.766;2023-03-01T08:46:25;20.73;;;14.20;;
14241;SDS011;7205;50.864;12.766;2023-03-01T08:48:52;19.33;;;14.00;;
14241;SDS011;7205;50.864;12.766;2023-03-01T08:51:19;18.90;;;13.70;;
14241;SDS011;7205;50.864;12.766;2023-03-01T08:53:47;20.23;;;13.03;;
14241;SDS011;7205;50.864;12.766;2023-03-01T08:56:14;16.40;;;12.43;;
14241;SDS011;7205;50.864;12.766;2023-03-01T08:58:43;20.77;;;13.97;;
14241;SDS011;7205;50.864;12.766;2023-03-01T09:01:12;18.10;;;13.63;;
14241;SDS011;7205;50.864;12.766;2023-03-01T09:03:41;20.00;;;13.57;;
14241;SDS011;7205;50.864;12.766;2023-03-01T09:06:08;20.87;;;13.73;;
14241;SDS011;7205;50.864;12.766;2023-03-01T09:08:36;18.80;;;13.63;;
14241;SDS011;7205;50.864;12.766;2023-03-01T09:11:05;16.90;;;13.37;;
14241;SDS011;7205;50.864;12.766;2023-03-01T09:13:33;17.47;;;13.60;;
14241;SDS011;7205;50.864;12.766;2023-03-01T09:16:01;19.83;;;14.20;;
14241;SDS011;7205;50.864;12.766;2023-03-01T09:18:29;17.53;;;13.33;;
14241;SDS011;7205;50.864;12.766;2023-03-01T09:21:01;20.47;;;14.07;;
14241;SDS011;7205;50.864;12.766;2023-03-01T09:23:32;19.00;;;14.17;;
14241;SDS011;7205;50.864;12.766;2023-03-01T09:25:59;18.03;;;13.07;;
14241;SDS011;7205;50.864;12.766;2023-03-01T09:28:26;17.07;;;13.17;;
14241;SDS011;7205;50.864;12.766;2023-03-01T09:30:53;18.53;;;14.23;;
14241;SDS011;7205;50.864;12.766;2023-03-01T09:33:19;20.33;;;13.47;;
14241;SDS011;7205;50.864;12.766;2023-03-01T09:35:46;18.17;;;13.57;;
14241;SDS011;7205;50.864;12.766;2023-03-01T09:38:14;15.77;;;13.07;;
14241;SDS011;7205;50.864;12.766;2023-03-01T09:40:42;19.27;;;13.23;;
14241;SDS011;7205;50.864;12.766;2023-03-01T09:43:15;18.30;;;13.73;;
14241;SDS011;7205;50.864;12.766;2023-03-01T09:45:48;20.40;;;14.13;;
14241;SDS011;7205;50.864;12.766;2023-03-01T09:48:20;22.03;;;13.97;;
14241;SDS011;7205;50.864;12.766;2023-03-01T09:50:50;18.37;;;12.97;;
14241;SDS011;7205;50.864;12.766;2023-03-01T09:53:20;16.80;;;12.50;;
14241;SDS011;7205;50.864;12.766;2023-03-01T09:55:51;19.63;;;13.20;;
14241;SDS011;7205;50.864;12.766;2023-03-01T09:58:32;19.10;;;13.23;;
14241;SDS011;7205;50.864;12.766;2023-03-01T10:01:11;17.83;;;12.43;;
14241;SDS011;7205;50.864;12.766;2023-03-01T10:04:00;16.33;;;13.10;;
14241;SDS011;7205;50.864;12.766;2023-03-01T10:06:36;17.20;;;13.30;;
14241;SDS011;7205;50.864;12.766;2023-03-01T10:09:09;21.83;;;12.60;;
14241;SDS011;7205;50.864;12.766;2023-03-01T10:11:41;18.27;;;13.77;;
14241;SDS011;7205;50.864;12.766;2023-03-01T10:14:15;16.80;;;12.63;;
14241;SDS011;7205;50.864;12.766;2023-03-01T10:16:51;16.43;;;12.77;;
14241;SDS011;7205;50.864;12.766;2023-03-01T10:19:24;21.40;;;13.90;;
14241;SDS011;7205;50.864;12.766;2023-03-01T10:22:00;19.07;;;12.57;;
14241;SDS011;7205;50.864;12.766;2023-03-01T10:24:37;18.80;;;12.23;;
14241;SDS011;7205;50.864;12.766;2023-03-01T10:27:05;19.73;;;12.33;;
14241;SDS011;7205;50.864;12.766;2023-03-01T10:29:37;15.70;;;12.30;;
14241;SDS011;7205;50.864;12.766;2023-03-01T10:32:09;16.03;;;12.23;;
14241;SDS011;7205;50.864;12.766;2023-03-01T10:34:37;17.30;;;13.37;;
14241;SDS011;7205;50.864;12.766;2023-03-01T10:37:08;18.23;;;12.80;;
14241;SDS011;7205;50.864;12.766;2023-03-01T10:39:39;17.23;;;12.90;;
14241;SDS011;7205;50.864;12.766;2023-03-01T10:42:22;16.60;;;13.03;;
14241;SDS011;7205;50.864;12.766;2023-03-01T10:44:53;16.53;;;12.47;;
14241;SDS011;7205;50.864;12.766;2023-03-01T10:47:21;15.80;;;12.37;;
14241;SDS011;7205;50.864;12.766;2023-03-01T10:49:56;21.77;;;12.63;;
14241;SDS011;7205;50.864;12.766;2023-03-01T10:52:26;14.43;;;11.90;;
14241;SDS011;7205;50.864;12.766;2023-03-01T10:54:58;18.97;;;12.47;;
14241;SDS011;7205;50.864;12.766;2023-03-01T10:57:28;15.70;;;12.67;;
14241;SDS011;7205;50.864;12.766;2023-03-01T11:03:10;14.50;;;11.17;;
14241;SDS011;7205;50.864;12.766;2023-03-01T11:05:49;20.07;;;11.53;;
14241;SDS011;7205;50.864;12.766;2023-03-01T11:08:32;18.47;;;13.77;;
14241;SDS011;7205;50.864;12.766;2023-03-01T11:14:00;17.93;;;13.53;;
14241;SDS011;7205;50.864;12.766;2023-03-01T11:16:33;17.87;;;12.60;;
14241;SDS011;7205;50.864;12.766;2023-03-01T11:19:18;18.90;;;13.00;;
14241;SDS011;7205;50.864;12.766;2023-03-01T11:21:54;16.73;;;13.20;;
14241;SDS011;7205;50.864;12.766;2023-03-01T11:25:05;16.73;;;12.30;;
14241;SDS011;7205;50.864;12.766;2023-03-01T11:27:43;18.50;;;12.93;;
14241;SDS011;7205;50.864;12.766;2023-03-01T11:30:13;15.27;;;12.73;;
14241;SDS011;7205;50.864;12.766;2023-03-01T11:32:46;15.27;;;12.30;;
14241;SDS011;7205;50.864;12.766;2023-03-01T11:35:20;17.50;;;13.33;;
14241;SDS011;7205;50.864;12.766;2023-03-01T11:37:55;17.63;;;13.43;;
14241;SDS011;7205;50.864;12.766;2023-03-01T11:40:31;17.03;;;12.70;;
14241;SDS011;7205;50.864;12.766;2023-03-01T11:43:04;18.70;;;13.80;;
14241;SDS011;7205;50.864;12.766;2023-03-01T11:45:48;17.83;;;12.73;;
14241;SDS011;7205;50.864;12.766;2023-03-01T11:48:37;19.90;;;14.60;;
14241;SDS011;7205;50.864;12.766;2023-03-01T11:51:15;19.37;;;13.33;;
14241;SDS011;7205;50.864;12.766;2023-03-01T11:53:51;22.00;;;13.93;;
14241;SDS011;7205;50.864;12.766;2023-03-01T11:56:29;16.30;;;13.30;;
14241;SDS011;7205;50.864;12.766;2023-03-01T11:59:05;18.93;;;11.87;;
14241;SDS011;7205;50.864;12.766;2023-03-01T12:01:48;19.63;;;13.33;;
14241;SDS011;7205;50.864;12.766;2023-03-01T12:07:23;17.63;;;13.50;;
14241;SDS011;7205;50.864;12.766;2023-03-01T12:10:02;17.23;;;12.20;;
14241;SDS011;7205;50.864;12.766;2023-03-01T12:12:50;17.37;;;13.40;;
14241;SDS011;7205;50.864;12.766;2023-03-01T12:15:40;17.73;;;13.33;;
14241;SDS011;7205;50.864;12.766;2023-03-01T12:21:10;19.10;;;14.07;;
14241;SDS011;7205;50.864;12.766;2023-03-01T12:23:50;17.50;;;13.93;;
14241;SDS011;7205;50.864;12.766;2023-03-01T12:26:38;15.90;;;12.60;;
14241;SDS011;7205;50.864;12.766;2023-03-01T12:29:20;17.17;;;14.07;;
14241;SDS011;7205;50.864;12.766;2023-03-01T12:32:03;19.53;;;15.07;;
14241;SDS011;7205;50.864;12.766;2023-03-01T12:37:42;19.50;;;14.40;;
14241;SDS011;7205;50.864;12.766;2023-03-01T12:40:27;18.23;;;14.10;;
14241;SDS011;7205;50.864;12.766;2023-03-01T12:43:12;20.33;;;15.47;;
14241;SDS011;7205;50.864;12.766;2023-03-01T12:45:50;18.77;;;15.00;;
14241;SDS011;7205;50.864;12.766;2023-03-01T12:48:34;21.57;;;15.67;;
14241;SDS011;7205;50.864;12.766;2023-03-01T12:51:18;18.27;;;14.80;;
14241;SDS011;7205;50.864;12.766;2023-03-01T12:53:49;18.10;;;13.60;;
14241;SDS011;7205;50.864;12.766;2023-03-01T12:56:19;17.83;;;14.23;;
14241;SDS011;7205;50.864;12.766;2023-03-01T12:58:53;18.53;;;14.80;;
14241;SDS011;7205;50.864;12.766;2023-03-01T13:01:29;18.13;;;14.27;;
14241;SDS011;7205;50.864;12.766;2023-03-01T13:04:18;18.27;;;14.23;;
14241;SDS011;7205;50.864;12.766;2023-03-01T13:07:10;24.67;;;13.83;;
14241;SDS011;7205;50.864;12.766;2023-03-01T13:09:43;20.13;;;15.40;;
14241;SDS011;7205;50.864;12.766;2023-03-01T13:15:26;20.83;;;15.63;;
14241;SDS011;7205;50.864;12.766;2023-03-01T13:17:55;18.90;;;14.83;;
14241;SDS011;7205;50.864;12.766;2023-03-01T13:20:27;20.07;;;16.17;;
14241;SDS011;7205;50.864;12.766;2023-03-01T13:23:06;22.03;;;14.87;;
14241;SDS011;7205;50.864;12.766;2023-03-01T13:34:44;18.67;;;14.00;;
14241;SDS011;7205;50.864;12.766;2023-03-01T13:37:21;17.83;;;14.67;;
14241;SDS011;7205;50.864;12.766;2023-03-01T13:39:59;22.53;;;13.97;;
14241;SDS011;7205;50.864;12.766;2023-03-01T13:42:38;19.67;;;14.70;;
14241;SDS011;7205;50.864;12.766;2023-03-01T13:45:15;23.40;;;15.83;;
14241;SDS011;7205;50.864;12.766;2023-03-01T13:47:47;21.03;;;14.50;;
14241;SDS011;7205;50.864;12.766;2023-03-01T13:50:20;20.77;;;14.17;;
14241;SDS011;7205;50.864;12.766;2023-03-01T13:52:52;20.17;;;15.50;;
14241;SDS011;7205;50.864;12.766;2023-03-01T13:55:23;21.93;;;15.97;;
14241;SDS011;7205;50.864;12.766;2023-03-01T13:57:54;18.73;;;14.70;;
14241;SDS011;7205;50.864;12.766;2023-03-01T14:03:12;20.77;;;14.60;;
14241;SDS011;7205;50.864;12.766;2023-03-01T14:05:42;19.03;;;15.17;;
14241;SDS011;7205;50.864;12.766;2023-03-01T14:08:21;18.47;;;15.03;;
14241;SDS011;7205;50.864;12.766;2023-03-01T14:14:14;18.20;;;13.33;;
14241;SDS011;7205;50.864;12.766;2023-03-01T14:16:54;16.50;;;12.60;;
14241;SDS011;7205;50.864;12.766;2023-03-01T14:19:29;14.30;;;12.20;;
14241;SDS011;7205;50.864;12.766;2023-03-01T14:22:03;16.60;;;12.70;;
14241;SDS011;7205;50.864;12.766;2023-03-01T14:24:47;15.73;;;11.73;;
14241;SDS011;7205;50.864;12.766;2023-03-01T14:27:15;17.23;;;13.33;;
14241;SDS011;7205;50.864;12.766;2023-03-01T14:29:49;15.23;;;13.13;;
14241;SDS011;7205;50.864;12.766;2023-03-01T14:32:28;15.57;;;11.87;;
14241;SDS011;7205;50.864;12.766;2023-03-01T14:35:01;17.07;;;13.07;;
14241;SDS011;7205;50.864;12.766;2023-03-01T14:37:29;16.60;;;11.97;;
14241;SDS011;7205;50.864;12.766;2023-03-01T14:40:00;15.73;;;12.37;;
14241;SDS011;7205;50.864;12.766;2023-03-01T14:42:31;15.47;;;13.13;;
14241;SDS011;7205;50.864;12.766;2023-03-01T14:45:02;15.37;;;12.57;;
14241;SDS011;7205;50.864;12.766;2023-03-01T14:47:39;16.20;;;12.47;;
14241;SDS011;7205;50.864;12.766;2023-03-01T14:50:22;15.57;;;12.77;;
14241;SDS011;7205;50.864;12.766;2023-03-01T14:53:03;15.80;;;12.10;;
14241;SDS011;7205;50.864;12.766;2023-03-01T14:55:45;14.43;;;12.27;;
14241;SDS011;7205;50.864;12.766;2023-03-01T14:58:15;16.53;;;13.47;;
14241;SDS011;7205;50.864;12.766;2023-03-01T15:00:46;15.40;;;12.67;;
14241;SDS011;7205;50.864;12.766;2023-03-01T15:03:18;17.67;;;12.63;;
14241;SDS011;7205;50.864;12.766;2023-03-01T15:05:50;16.00;;;12.00;;
14241;SDS011;7205;50.864;12.766;2023-03-01T15:08:19;17.07;;;11.93;;
14241;SDS011;7205;50.864;12.766;2023-03-01T15:11:01;14.90;;;11.43;;
14241;SDS011;7205;50.864;12.766;2023-03-01T15:13:30;16.47;;;11.43;;
14241;SDS011;7205;50.864;12.766;2023-03-01T15:16:08;12.57;;;11.10;;